Nearby METAR Reports

 

KIMT - Iron Mountain, Michigan, USA
Distance from station: 0 29mi, 47km
Updated: Sun, 17-Jun-2018 4:54pm CDT
Few Clouds
Few Clouds
 Wind from SSW
Wind: SSW 15 mph , 24 km/h, Gust: 29 mph , 46 km/h
Temperature: 90°F , 32°C
Heat Index: 99°F , 37°C
Dew Point: 73°F , 23°C
Humidity: 59%
Barometer: 29.79 inHg , 1008.8 hPa
Clouds: Few Clouds
Visibility: 10 miles , 16 km
Cloud details: Few Clouds 4300 ft
2018/06/17 21:54 KIMT 172154Z AUTO 20013G25KT 10SM FEW043 32/23 A2979 RMK AO2 SLP079 T03220228
KMNM - Menominee, Michigan, USA
Distance from station: SE 31mi, 51km
Updated: Sun, 17-Jun-2018 3:56pm CDT
Clear
Clear
 Wind from SW
Wind: SW 12 mph , 19 km/h, Gust: 21 mph , 33 km/h
Temperature: 90°F , 32°C
Heat Index: 99°F , 37°C
Dew Point: 73°F , 23°C
Humidity: 59%
Barometer: 29.84 inHg , 1010.5 hPa
Clouds: Clear
Visibility: 10 miles , 16 km
2018/06/17 20:56 KMNM 172056Z AUTO 23010G18KT 10SM CLR 32/23 A2984 RMK AO2 SLP110 T03220233 56016 $
 
KOCQ - Oconto, Wisconsin, USA
Distance from station: SSE 38mi, 61km
Updated: Sun, 17-Jun-2018 4:35pm CDT
Clear
Clear
 Wind from SSW
Wind: SSW 13 mph , 20 km/h, Gust: 18 mph , 30 km/h
Temperature: 91°F , 33°C
Heat Index: 98°F , 37°C
Dew Point: 72°F , 22°C
Humidity: 52%
Barometer: 29.82 inHg , 1009.8 hPa
Clouds: Clear
Visibility: 10 miles , 16 km
2018/06/17 21:35 KOCQ 172135Z AUTO 21011G16KT 180V240 10SM CLR 33/22 A2982 RMK AO1 T03320218
KEZS - Shawano Muni, Wisconsin, USA
Distance from station: SSW 48mi, 77km
Updated: Sun, 17-Jun-2018 4:35pm CDT
Partly cloudy
Partly cloudy
 Wind from SSW
Wind: SSW 8 mph , 13 km/h, Gust: 16 mph , 26 km/h
Temperature: 93°F , 34°C
Heat Index: 99°F , 37°C
Dew Point: 70°F , 21°C
Humidity: 47%
Barometer: 29.83 inHg , 1010.2 hPa
Clouds: Partly cloudy
Visibility: 10 miles , 16 km
Cloud details: Partly cloudy 5000 ft
Partly cloudy 5500 ft
2018/06/17 21:35 KEZS 172135Z AUTO 21007G14KT 170V250 10SM SCT050 SCT055 34/21 A2983 RMK AO2 T03410210
 
KAIG - Antigo/Langlade, Wisconsin, USA
Distance from station: WSW 51mi, 82km
Updated: Sun, 17-Jun-2018 4:35pm CDT
Partly cloudy
Partly cloudy
 Wind from SSW
Wind: SSW 15 mph , 24 km/h, Gust: 20 mph , 31 km/h
Temperature: 86°F , 30°C
Heat Index: 92°F , 33°C
Dew Point: 72°F , 22°C
Humidity: 62%
Barometer: 29.86 inHg , 1011.2 hPa
Clouds: Partly cloudy
Visibility: 10 miles , 16 km
Cloud details: Partly cloudy 4800 ft
Partly cloudy 5000 ft
2018/06/17 21:35 KAIG 172135Z AUTO 20013G17KT 10SM SCT048 SCT050 30/22 A2986 RMK AO2 T03010222
KSUE - Sturgeon Bay, Wisconsin, USA
Distance from station: SE 51mi, 82km
Updated: Sun, 17-Jun-2018 3:56pm CDT
Few Clouds
Few Clouds
 Wind from SSW
Wind: SSW 17 mph , 28 km/h, Gust: 23 mph , 37 km/h
Temperature: 91°F , 33°C
Heat Index: 98°F , 37°C
Dew Point: 72°F , 22°C
Humidity: 52%
Barometer: 29.85 inHg , 1010.8 hPa
Clouds: Few Clouds
Visibility: 10 miles , 16 km
Cloud details: Few Clouds 4700 ft
2018/06/17 20:56 KSUE 172056Z AUTO 21015G20KT 10SM FEW047 33/22 A2985 RMK AO2 SLP115 T03280222 56018
 
KESC - Escanaba, Michigan, USA
Distance from station: ENE 56mi, 90km
Updated: Sun, 17-Jun-2018 4:56pm CDT
Few Clouds
Few Clouds
 Wind from SSW
Wind: SSW 16 mph , 26 km/h, Gust: 25 mph , 41 km/h
Temperature: 82°F , 28°C
Heat Index: 86°F , 30°C
Dew Point: 72°F , 22°C
Humidity: 70%
Barometer: 29.78 inHg , 1008.5 hPa
Clouds: Few Clouds
Visibility: 10 miles , 16 km
Cloud details: Few Clouds 4600 ft
2018/06/17 21:56 KESC 172156Z AUTO 20014G22KT 10SM FEW046 28/22 A2978 RMK AO2 LTG DSNT NE SLP099 T028
KCLI - Clintonville, Wisconsin, USA
Distance from station: SSW 62mi, 99km
Updated: Sat, 16-Jun-2018 12:35am CDT
NOT Current
Clear
Clear
 Wind from NE
Wind: NE 5 mph , 7 km/h
Temperature: 64°F , 18°C
Dew Point: 63°F , 17°C
Humidity: 94%
Barometer: 29.90 inHg , 1012.5 hPa
Clouds: Clear
Visibility: 10 miles , 16 km
2018/06/16 05:35 KCLI 160535Z AUTO 05004KT 10SM CLR 18/17 A2990 RMK AO2 T01760168
 
KGRB - Ashwaubenon, Wisconsin, USA
Distance from station: S 63mi, 102km
Updated: Sun, 17-Jun-2018 4:53pm CDT
Few Clouds
Few Clouds
 Wind from SSW
Wind: SSW 17 mph , 28 km/h, Gust: 24 mph , 39 km/h
Temperature: 90°F , 32°C
Heat Index: 97°F , 36°C
Dew Point: 72°F , 22°C
Humidity: 55%
Barometer: 29.83 inHg , 1010.2 hPa
Clouds: Few Clouds
Visibility: 10 miles , 16 km
Cloud details: Few Clouds 5500 ft
2018/06/17 21:53 KGRB 172153Z AUTO 20015G21KT 10SM FEW055 32/22 A2983 RMK AO2 SLP098 T03220222 $
KEGV - Eagle River, Wisconsin, USA
Distance from station: NW 66mi, 107km
Updated: Sun, 17-Jun-2018 4:35pm CDT
Clear
Clear
 Wind from SW
Wind: SW 9 mph , 15 km/h
Temperature: 84°F , 29°C
Heat Index: 87°F , 31°C
Dew Point: 68°F , 20°C
Humidity: 58%
Barometer: 29.83 inHg , 1010.2 hPa
Clouds: Clear
Visibility: 10 miles , 16 km
2018/06/17 21:35 KEGV 172135Z AUTO 22008KT 10SM CLR 29/20 A2983 RMK AO2 T02910200
 
KRHI - Rhinelander, Wisconsin, USA
Distance from station: WNW 68mi, 109km
Updated: Sun, 17-Jun-2018 4:53pm CDT
Clear
Clear
 Wind from SW
Wind: SW 12 mph , 19 km/h, Gust: 18 mph , 30 km/h
Temperature: 88°F , 31°C
Heat Index: 96°F , 36°C
Dew Point: 73°F , 23°C
Humidity: 62%
Barometer: 29.85 inHg , 1010.8 hPa
Clouds: Clear
Visibility: 10 miles , 16 km
2018/06/17 21:53 KRHI 172153Z AUTO 22010G16KT 10SM CLR 31/23 A2985 RMK AO2 SLP094 T03060228
KLNL - Land O Lakes, Wisconsin, USA
Distance from station: NW 74mi, 119km
Updated: Sun, 17-Jun-2018 4:35pm CDT
Partly cloudy
Partly cloudy
 Wind from SSW
Wind: SSW 6 mph , 9 km/h
Temperature: 86°F , 30°C
Heat Index: 91°F , 33°C
Dew Point: 70°F , 21°C
Humidity: 59%
Barometer: 29.84 inHg , 1010.5 hPa
Clouds: Partly cloudy
Visibility: 10 miles , 16 km
Cloud details: Partly cloudy 3800 ft
Partly cloudy 4600 ft
Partly cloudy 5000 ft
2018/06/17 21:35 KLNL 172135Z AUTO 20005KT 10SM SCT038 SCT046 SCT050 30/21 A2984 RMK AO2 LTG DSNT W AND NW T02960210
 
KSAW - Gwinn/Sawyer, Michigan, USA
Distance from station: NNE 74mi, 120km
Updated: Sun, 17-Jun-2018 4:47pm CDT
Light thunderstorm, Rain, Mostly cloudy
Light thunderstorm, Rain, Mostly cloudy
 Wind from ENE
Wind: ENE 12 mph , 19 km/h
Temperature: 72°F , 22°C
Dew Point: 66°F , 19°C
Humidity: 83%
Barometer: 29.83 inHg , 1010.2 hPa
Summary: Light thunderstorm, Rain
Clouds: Mostly cloudy
Visibility: 10 miles , 16 km
Cloud details: Partly cloudy 4100 ft
Mostly cloudy 5000 ft
Mostly cloudy 6000 ft
2018/06/17 21:47 KSAW 172147Z 06010KT 10SM -TSRA SCT041 BKN050 BKN060 22/19 A2983 RMK TS W AND NE MOV NE OCNL LTGCG W THRU NE